Time;durP1;ratioP1;P1;durP2;ratioP2;P2;SDS_P1;SDS_P2;PMS_P1;PMS_P2;Temp;Humidity;BMP_temperature;BMP_pressure;BME280_temperature;BME280_humidity;BME280_pressure;Samples;Min_cycle;Max_cycle;Signal;HPM_P1;HPM_P2
2023/10/26 00:01:22;;;;;;;33.40;30.30;;;11.20;99.90;;;;;;5056039;28;20469;-71
2023/10/26 00:03:50;;;;;;;31.90;28.90;;;11.20;99.90;;;;;;5055861;28;20931;-71
2023/10/26 00:06:18;;;;;;;33.80;30.60;;;11.20;99.90;;;;;;5055748;28;20950;-71
2023/10/26 00:08:47;;;;;;;36.07;32.77;;;11.20;99.90;;;;;;5055638;28;20454;-71
2023/10/26 00:11:16;;;;;;;34.57;31.37;;;11.20;99.90;;;;;;5055812;28;20438;-71
2023/10/26 00:13:44;;;;;;;34.63;31.20;;;11.20;99.90;;;;;;5055998;28;20434;-71
2023/10/26 00:16:12;;;;;;;35.43;32.03;;;11.20;99.90;;;;;;5055927;28;20772;-71
2023/10/26 00:18:40;;;;;;;35.07;31.87;;;11.20;99.90;;;;;;5054348;28;20494;-71
2023/10/26 00:21:08;;;;;;;36.47;32.40;;;11.20;99.90;;;;;;5055565;28;20516;-71
2023/10/26 00:23:36;;;;;;;35.80;32.10;;;11.20;99.90;;;;;;5055463;28;20526;-71
2023/10/26 00:26:06;;;;;;;35.30;31.90;;;11.20;99.90;;;;;;5056027;28;20446;-71
2023/10/26 00:28:34;;;;;;;35.20;32.00;;;11.20;99.90;;;;;;5054140;28;20996;-71
2023/10/26 00:31:02;;;;;;;37.40;33.70;;;11.20;99.90;;;;;;5055584;28;20434;-71
2023/10/26 00:33:32;;;;;;;37.43;33.77;;;11.20;99.90;;;;;;5055870;28;20442;-71
2023/10/26 00:36:00;;;;;;;37.37;33.87;;;11.20;99.90;;;;;;5054066;28;20461;-71
2023/10/26 00:38:28;;;;;;;36.97;33.30;;;11.20;99.90;;;;;;5053894;28;20477;-71
2023/10/26 00:40:57;;;;;;;37.20;33.60;;;11.20;99.90;;;;;;5055181;28;20512;-71
2023/10/26 00:43:27;;;;;;;37.10;33.60;;;11.20;99.90;;;;;;5037283;28;20451;-71
2023/10/26 00:45:55;;;;;;;37.67;34.07;;;11.20;99.90;;;;;;5055347;28;20476;-71
2023/10/26 00:48:24;;;;;;;37.60;33.80;;;11.20;99.90;;;;;;5055237;28;20458;-71
2023/10/26 00:50:53;;;;;;;39.83;36.03;;;11.20;99.90;;;;;;5053781;28;20454;-71
2023/10/26 00:53:21;;;;;;;40.00;35.70;;;11.20;99.90;;;;;;5037064;28;20438;-71
2023/10/26 00:55:52;;;;;;;38.63;34.53;;;11.10;99.90;;;;;;5055218;28;20521;-71
2023/10/26 00:58:22;;;;;;;34.90;31.57;;;11.20;99.90;;;;;;5053767;28;20874;-71
2023/10/26 01:00:51;;;;;;;37.17;33.33;;;11.20;99.90;;;;;;5055262;28;20469;-71
2023/10/26 01:03:20;;;;;;;37.47;33.57;;;11.10;99.90;;;;;;5036909;28;20810;-71
2023/10/26 01:05:48;;;;;;;37.63;33.83;;;11.10;99.90;;;;;;5054733;28;20443;-71
2023/10/26 01:08:17;;;;;;;38.43;34.57;;;11.10;99.90;;;;;;5054635;28;20927;-71
2023/10/26 01:10:45;;;;;;;37.50;33.47;;;11.20;99.90;;;;;;5054660;28;20919;-71
2023/10/26 01:13:14;;;;;;;36.57;33.07;;;11.10;99.90;;;;;;5054554;28;20434;-71
2023/10/26 01:15:42;;;;;;;37.67;34.10;;;11.10;99.90;;;;;;5053284;28;20517;-71
2023/10/26 01:18:12;;;;;;;35.93;32.33;;;11.10;99.90;;;;;;5053147;28;20983;-71
2023/10/26 01:20:42;;;;;;;38.77;34.80;;;11.10;99.90;;;;;;5054312;28;20465;-70
2023/10/26 01:23:12;;;;;;;36.43;32.73;;;11.10;99.90;;;;;;5054666;28;20488;-71
2023/10/26 01:25:40;;;;;;;38.33;34.43;;;11.10;99.90;;;;;;5054311;28;20472;-71
2023/10/26 01:28:08;;;;;;;38.23;34.43;;;11.10;99.90;;;;;;5036265;28;21031;-71
2023/10/26 01:30:36;;;;;;;38.43;34.57;;;11.10;99.90;;;;;;5054590;28;20430;-71
2023/10/26 01:33:04;;;;;;;40.00;35.83;;;11.10;99.90;;;;;;5054459;28;20466;-71
2023/10/26 01:35:38;;;;;;;38.77;34.93;;;11.10;99.90;;;;;;5054053;28;20456;-71
2023/10/26 01:38:06;;;;;;;38.30;34.57;;;11.10;99.90;;;;;;5036449;28;20975;-71
2023/10/26 01:40:35;;;;;;;37.50;33.40;;;11.10;99.90;;;;;;5054011;28;20434;-71
2023/10/26 01:43:04;;;;;;;37.90;34.17;;;11.10;99.90;;;;;;5052988;28;20536;-71
2023/10/26 01:45:32;;;;;;;37.43;33.43;;;11.10;99.90;;;;;;5054200;28;20846;-71
2023/10/26 01:48:02;;;;;;;38.83;35.00;;;11.10;99.90;;;;;;5036201;28;20975;-71
2023/10/26 01:50:32;;;;;;;37.57;33.87;;;11.10;99.90;;;;;;5036059;28;20881;-70
2023/10/26 01:53:00;;;;;;;37.20;33.50;;;11.10;99.90;;;;;;5035880;28;20452;-71
2023/10/26 01:55:28;;;;;;;40.83;36.73;;;11.10;99.90;;;;;;5052539;28;20496;-71
2023/10/26 01:57:58;;;;;;;37.93;34.23;;;11.10;99.90;;;;;;5052549;28;20462;-71
2023/10/26 02:00:26;;;;;;;37.77;34.10;;;11.00;99.90;;;;;;5052437;28;20469;-70
2023/10/26 02:02:55;;;;;;;37.80;34.20;;;11.00;99.90;;;;;;5053541;28;20990;-70
2023/10/26 02:05:24;;;;;;;35.70;32.17;;;11.00;99.90;;;;;;5053899;28;20912;-71
2023/10/26 02:07:53;;;;;;;36.73;33.03;;;11.10;99.90;;;;;;5053549;28;20456;-70
2023/10/26 02:10:23;;;;;;;38.33;34.43;;;11.00;99.90;;;;;;5052235;28;20450;-71
2023/10/26 02:12:51;;;;;;;38.47;34.40;;;11.00;99.90;;;;;;5052252;28;20958;-70
2023/10/26 02:15:21;;;;;;;36.17;32.47;;;11.00;99.90;;;;;;5052229;28;20492;-70
2023/10/26 02:17:49;;;;;;;37.73;34.13;;;11.00;99.90;;;;;;5035541;28;20466;-70
2023/10/26 02:20:18;;;;;;;38.97;34.97;;;11.00;99.90;;;;;;5035515;28;20442;-70
2023/10/26 02:22:46;;;;;;;38.20;34.20;;;11.00;99.90;;;;;;5035467;28;20478;-70
2023/10/26 02:25:15;;;;;;;37.53;33.43;;;11.00;99.90;;;;;;5052100;28;21026;-70
2023/10/26 02:27:43;;;;;;;36.60;32.87;;;11.00;99.90;;;;;;5052404;28;20470;-70
2023/10/26 02:30:12;;;;;;;36.20;32.50;;;11.00;99.90;;;;;;5052106;28;20442;-70
2023/10/26 02:32:42;;;;;;;37.47;33.70;;;11.00;99.90;;;;;;5053264;28;20474;-70
2023/10/26 02:35:10;;;;;;;36.13;32.30;;;11.00;99.90;;;;;;5051986;28;20477;-70
2023/10/26 02:37:39;;;;;;;36.73;32.60;;;11.00;99.90;;;;;;5053265;28;20857;-71
2023/10/26 02:40:09;;;;;;;36.47;32.83;;;11.00;99.90;;;;;;5053560;28;20462;-70
2023/10/26 02:42:38;;;;;;;38.77;34.70;;;11.00;99.90;;;;;;5034827;28;20548;-70
2023/10/26 02:45:08;;;;;;;34.77;31.33;;;11.00;99.90;;;;;;5053450;28;20434;-70
2023/10/26 02:47:37;;;;;;;35.93;32.43;;;11.00;99.90;;;;;;5035471;28;20498;-71
2023/10/26 02:50:09;;;;;;;38.17;34.07;;;11.00;99.90;;;;;;5035557;28;20442;-70
2023/10/26 02:52:37;;;;;;;35.90;32.40;;;11.00;99.90;;;;;;5035236;28;20512;-70
2023/10/26 02:55:07;;;;;;;34.37;30.80;;;11.00;99.90;;;;;;5053357;28;20441;-70
2023/10/26 02:57:35;;;;;;;36.27;32.57;;;10.90;99.90;;;;;;5053374;28;20462;-70
2023/10/26 03:00:05;;;;;;;35.60;31.90;;;10.90;99.90;;;;;;5053461;28;20437;-70
2023/10/26 03:02:35;;;;;;;36.40;32.70;;;10.90;99.90;;;;;;5053514;28;20482;-70
2023/10/26 03:05:03;;;;;;;35.13;31.43;;;10.90;99.90;;;;;;5052109;28;20449;-70
2023/10/26 03:07:33;;;;;;;34.60;31.00;;;10.90;99.90;;;;;;5052909;28;20509;-70
2023/10/26 03:10:01;;;;;;;35.43;31.83;;;10.90;99.90;;;;;;5035084;28;20531;-70
2023/10/26 03:12:29;;;;;;;35.83;30.97;;;10.90;99.90;;;;;;5053362;28;20438;-70
2023/10/26 03:14:57;;;;;;;36.30;32.50;;;10.90;99.90;;;;;;5051835;28;20492;-70
2023/10/26 03:17:25;;;;;;;37.40;33.70;;;10.90;99.90;;;;;;5035126;28;20496;-71
2023/10/26 03:19:54;;;;;;;34.60;30.83;;;10.90;99.90;;;;;;5051837;28;20438;-70
2023/10/26 03:22:22;;;;;;;37.53;32.57;;;10.90;99.90;;;;;;5051558;28;20495;-70
2023/10/26 03:24:53;;;;;;;33.43;30.10;;;10.90;99.90;;;;;;5053373;28;20460;-70
2023/10/26 03:27:21;;;;;;;33.17;29.67;;;10.80;99.90;;;;;;5051939;28;20971;-70
2023/10/26 03:29:49;;;;;;;34.40;30.90;;;10.80;99.90;;;;;;5052927;28;20438;-70
2023/10/26 03:32:18;;;;;;;34.70;31.00;;;10.80;99.90;;;;;;5051883;28;20446;-70
2023/10/26 03:34:48;;;;;;;31.00;27.93;;;10.80;99.90;;;;;;5053589;28;20434;-70
2023/10/26 03:37:17;;;;;;;31.90;28.70;;;10.80;99.90;;;;;;5035322;28;20979;-70
2023/10/26 03:39:45;;;;;;;32.90;29.70;;;10.80;99.90;;;;;;5035660;28;20962;-70
2023/10/26 03:42:14;;;;;;;33.00;29.70;;;10.80;99.90;;;;;;5057112;28;20470;-69
2023/10/26 03:44:43;;;;;;;32.77;29.33;;;10.80;99.90;;;;;;5056108;28;20479;-71
2023/10/26 03:47:11;;;;;;;32.67;29.10;;;10.80;99.90;;;;;;5053115;28;20446;-70
2023/10/26 03:49:39;;;;;;;34.07;30.37;;;10.80;99.90;;;;;;5054752;28;20530;-70
2023/10/26 03:52:08;;;;;;;32.80;29.30;;;10.80;99.90;;;;;;5055004;28;20438;-70
2023/10/26 03:54:36;;;;;;;33.67;30.00;;;10.80;99.90;;;;;;5058246;28;20434;-70
2023/10/26 03:57:06;;;;;;;31.90;28.53;;;10.70;99.90;;;;;;5061292;28;20446;-70
2023/10/26 03:59:35;;;;;;;31.70;28.30;;;10.70;99.90;;;;;;5039626;28;20442;-70
2023/10/26 04:02:04;;;;;;;32.50;29.00;;;10.70;99.90;;;;;;5055239;28;20461;-70
2023/10/26 04:04:32;;;;;;;33.00;29.67;;;10.70;99.90;;;;;;5056362;28;20792;-70
2023/10/26 04:07:00;;;;;;;33.57;29.70;;;10.70;99.90;;;;;;5056291;28;20434;-70
2023/10/26 04:09:28;;;;;;;34.07;30.47;;;10.70;99.90;;;;;;5056257;28;20461;-70
2023/10/26 04:11:56;;;;;;;32.27;29.03;;;10.70;99.90;;;;;;5056150;28;20855;-70
2023/10/26 04:14:24;;;;;;;34.57;29.17;;;10.70;99.90;;;;;;5056281;28;20536;-70
2023/10/26 04:16:54;;;;;;;35.33;31.10;;;10.70;99.90;;;;;;5056398;28;20932;-70
2023/10/26 04:19:22;;;;;;;32.97;29.47;;;10.60;99.90;;;;;;5056632;28;20426;-70
2023/10/26 04:21:50;;;;;;;31.80;28.60;;;10.70;99.90;;;;;;5054999;28;20961;-70
2023/10/26 04:24:18;;;;;;;34.40;30.70;;;10.70;99.90;;;;;;5056191;28;20551;-70
2023/10/26 04:26:46;;;;;;;33.93;30.43;;;10.60;99.90;;;;;;5056430;28;20445;-70
2023/10/26 04:29:14;;;;;;;34.17;29.70;;;10.60;99.90;;;;;;5054891;28;20476;-70
2023/10/26 04:31:42;;;;;;;34.73;30.93;;;10.60;99.90;;;;;;5055953;28;20438;-69
2023/10/26 04:34:12;;;;;;;35.33;29.57;;;10.60;99.90;;;;;;5055923;28;20437;-70
2023/10/26 04:36:40;;;;;;;34.37;30.67;;;10.60;99.90;;;;;;5056042;28;20545;-70
2023/10/26 04:39:09;;;;;;;35.07;31.27;;;10.60;99.90;;;;;;5055885;28;20831;-70
2023/10/26 04:41:38;;;;;;;33.00;29.60;;;10.60;99.90;;;;;;5037303;28;20453;-70
2023/10/26 04:44:06;;;;;;;33.60;28.33;;;10.60;99.90;;;;;;5055066;28;20462;-70
2023/10/26 04:46:34;;;;;;;33.63;30.00;;;10.60;99.90;;;;;;5055224;28;20453;-70
2023/10/26 04:49:03;;;;;;;33.77;30.20;;;10.60;99.90;;;;;;5055264;28;20454;-70
2023/10/26 04:51:33;;;;;;;35.00;31.40;;;10.60;99.90;;;;;;5055266;28;20430;-70
2023/10/26 04:54:01;;;;;;;34.60;30.90;;;10.60;99.90;;;;;;5055091;28;20467;-70
2023/10/26 04:56:29;;;;;;;33.50;30.00;;;10.50;99.90;;;;;;5055195;28;20869;-70
2023/10/26 04:58:57;;;;;;;33.43;28.00;;;10.60;99.90;;;;;;5054828;28;20541;-70
2023/10/26 05:01:25;;;;;;;33.97;30.37;;;10.60;99.90;;;;;;5055466;28;20434;-70
2023/10/26 05:03:54;;;;;;;35.50;29.90;;;10.60;99.90;;;;;;5054916;28;20895;-70
2023/10/26 05:06:22;;;;;;;33.67;30.07;;;10.50;99.90;;;;;;5054791;28;20433;-70
2023/10/26 05:08:51;;;;;;;33.93;30.23;;;10.50;99.90;;;;;;5054557;28;20981;-70
2023/10/26 05:11:20;;;;;;;35.13;30.63;;;10.50;99.90;;;;;;5055174;28;20538;-70
2023/10/26 05:13:52;;;;;;;35.10;30.27;;;10.40;99.90;;;;;;5054895;28;20433;-70
2023/10/26 05:16:20;;;;;;;33.30;29.70;;;10.40;99.90;;;;;;5055119;28;20414;-70
2023/10/26 05:18:48;;;;;;;32.77;29.27;;;10.40;99.90;;;;;;5054449;28;20462;-71
2023/10/26 05:21:17;;;;;;;36.90;31.60;;;10.40;99.90;;;;;;5054648;28;20488;-70
2023/10/26 05:23:47;;;;;;;34.20;29.67;;;10.40;99.90;;;;;;5054358;28;20461;-70
2023/10/26 05:26:17;;;;;;;36.43;31.10;;;10.40;99.90;;;;;;5054286;28;20442;-70
2023/10/26 05:28:45;;;;;;;31.97;28.67;;;10.40;99.90;;;;;;5054749;28;20494;-70
2023/10/26 05:31:13;;;;;;;32.10;28.60;;;10.40;99.90;;;;;;5055096;28;20434;-70
2023/10/26 05:33:42;;;;;;;33.07;29.07;;;10.40;99.90;;;;;;5054676;28;20470;-71
2023/10/26 05:36:10;;;;;;;33.27;29.63;;;10.40;99.90;;;;;;5054249;28;20449;-71
2023/10/26 05:38:38;;;;;;;34.23;29.80;;;10.40;99.90;;;;;;5054081;28;20458;-70
2023/10/26 05:41:06;;;;;;;33.97;29.80;;;10.40;99.90;;;;;;5054238;28;20435;-70
2023/10/26 05:43:36;;;;;;;35.20;30.83;;;10.30;99.90;;;;;;5054583;28;20466;-71
2023/10/26 05:46:05;;;;;;;33.37;29.83;;;10.30;99.90;;;;;;5053983;28;20462;-70
2023/10/26 05:48:34;;;;;;;37.77;30.73;;;10.30;99.90;;;;;;5054412;28;20890;-70
2023/10/26 05:51:02;;;;;;;37.87;33.70;;;10.30;99.90;;;;;;5053874;28;20931;-70
2023/10/26 05:53:30;;;;;;;36.53;31.67;;;10.30;99.90;;;;;;5053796;28;20997;-71
2023/10/26 05:55:59;;;;;;;35.60;31.77;;;10.30;99.90;;;;;;5053770;28;20446;-70
2023/10/26 05:58:28;;;;;;;36.07;32.17;;;10.30;99.90;;;;;;5054470;28;20469;-71
2023/10/26 06:01:00;;;;;;;33.83;29.30;;;10.40;99.90;;;;;;5055184;28;20444;-70
2023/10/26 06:03:31;;;;;;;36.17;32.27;;;10.40;99.90;;;;;;5054518;28;20474;-71
2023/10/26 06:06:00;;;;;;;33.57;30.07;;;10.40;99.90;;;;;;5055730;28;20422;-70
2023/10/26 06:08:29;;;;;;;33.27;29.33;;;10.40;99.90;;;;;;5054305;28;20485;-70
2023/10/26 06:10:57;;;;;;;32.67;29.23;;;10.40;99.90;;;;;;5055410;28;20488;-70
2023/10/26 06:13:26;;;;;;;34.70;29.77;;;10.40;99.90;;;;;;5055208;28;20526;-70
2023/10/26 06:15:55;;;;;;;31.93;28.50;;;10.40;99.90;;;;;;5054864;28;20435;-70
2023/10/26 06:18:24;;;;;;;32.43;28.77;;;10.40;99.90;;;;;;5055446;28;20504;-70
2023/10/26 06:20:59;;;;;;;33.90;29.60;;;10.40;99.90;;;;;;5055032;28;20433;-70
2023/10/26 06:23:28;;;;;;;34.30;30.43;;;10.40;99.90;;;;;;5055148;28;20473;-70
2023/10/26 06:26:00;;;;;;;33.43;29.87;;;10.30;99.90;;;;;;5037625;28;20499;-70
2023/10/26 06:28:29;;;;;;;33.33;29.80;;;10.30;99.90;;;;;;5055423;28;20458;-70
2023/10/26 06:31:08;;;;;;;37.40;32.00;;;10.30;99.90;;;;;;5055557;28;20440;-71
2023/10/26 06:33:37;;;;;;;35.33;31.33;;;10.40;99.90;;;;;;5037424;28;20488;-71
2023/10/26 06:36:07;;;;;;;37.97;31.80;;;10.30;99.90;;;;;;5055046;28;20457;-71
2023/10/26 06:38:35;;;;;;;35.27;29.30;;;10.30;99.90;;;;;;5055392;28;20826;-70
2023/10/26 06:41:04;;;;;;;32.73;28.97;;;10.30;99.90;;;;;;5037375;28;20434;-69
2023/10/26 06:43:32;;;;;;;32.30;28.47;;;10.30;99.90;;;;;;5055209;28;20540;-70
2023/10/26 06:46:00;;;;;;;33.70;29.40;;;10.30;99.90;;;;;;5053818;28;20541;-70
2023/10/26 06:48:28;;;;;;;33.83;30.20;;;10.30;99.90;;;;;;5054969;28;20974;-70
2023/10/26 06:51:02;;;;;;;34.87;31.10;;;10.40;99.90;;;;;;5055311;28;20469;-70
2023/10/26 06:53:31;;;;;;;37.90;31.50;;;10.30;99.90;;;;;;5055096;28;20445;-71
2023/10/26 06:55:59;;;;;;;33.40;29.80;;;10.40;99.90;;;;;;5054843;28;20560;-70
2023/10/26 06:58:27;;;;;;;34.30;29.67;;;10.40;99.90;;;;;;5054958;28;20457;-70
2023/10/26 07:00:55;;;;;;;31.83;28.40;;;10.40;99.90;;;;;;5054974;28;20500;-70
2023/10/26 07:03:24;;;;;;;32.83;28.80;;;10.40;99.90;;;;;;5053704;28;20439;-70
2023/10/26 07:05:52;;;;;;;34.37;29.70;;;10.40;99.90;;;;;;5054900;28;20434;-70
2023/10/26 07:08:22;;;;;;;36.30;30.33;;;10.40;99.90;;;;;;5052386;28;20469;-71
2023/10/26 07:10:50;;;;;;;32.50;28.97;;;10.40;99.90;;;;;;5053166;28;20439;-70
2023/10/26 07:13:18;;;;;;;36.50;30.20;;;10.40;99.90;;;;;;5053586;28;20434;-71
2023/10/26 07:15:47;;;;;;;34.30;30.70;;;10.50;99.90;;;;;;5053401;28;20444;-71
2023/10/26 07:18:15;;;;;;;35.33;29.83;;;10.40;99.90;;;;;;5035868;28;20496;-70
2023/10/26 07:20:43;;;;;;;32.47;28.17;;;10.40;99.90;;;;;;5035631;28;20495;-70
2023/10/26 07:23:14;;;;;;;32.50;28.27;;;10.40;99.90;;;;;;5053684;28;20453;-71
2023/10/26 07:25:43;;;;;;;32.93;29.30;;;10.40;99.90;;;;;;5053644;28;20576;-70
2023/10/26 07:28:12;;;;;;;36.20;30.63;;;10.40;99.90;;;;;;5054599;28;20522;-70
2023/10/26 07:30:41;;;;;;;33.87;30.00;;;10.40;99.90;;;;;;5057352;28;20529;-70
2023/10/26 07:33:10;;;;;;;29.87;24.10;;;10.40;99.90;;;;;;5039576;28;20511;-69
2023/10/26 07:35:41;;;;;;;36.83;32.33;;;10.40;99.90;;;;;;5057254;28;20457;-71
2023/10/26 07:38:09;;;;;;;33.53;28.50;;;10.50;99.90;;;;;;5039536;28;20500;-70
2023/10/26 07:41:00;;;;;;;34.80;30.97;;;10.50;99.90;;;;;;5057977;28;20422;-70
2023/10/26 07:43:28;;;;;;;36.00;30.80;;;10.50;99.90;;;;;;5039693;28;20521;-70
2023/10/26 07:45:57;;;;;;;36.07;31.90;;;10.50;99.90;;;;;;5057682;28;20568;-70
2023/10/26 07:48:25;;;;;;;35.03;29.70;;;10.50;99.90;;;;;;5057398;28;20458;-70
2023/10/26 07:50:54;;;;;;;39.07;31.97;;;10.50;99.90;;;;;;5057553;28;20939;-70
2023/10/26 07:53:23;;;;;;;35.03;28.67;;;10.60;99.90;;;;;;5057527;28;20434;-70
2023/10/26 07:55:51;;;;;;;32.20;28.70;;;10.60;99.90;;;;;;5057902;28;20427;-70
2023/10/26 07:58:20;;;;;;;32.93;28.90;;;10.60;99.90;;;;;;5057460;28;20541;-70
2023/10/26 08:00:49;;;;;;;38.73;32.43;;;10.60;99.90;;;;;;5057625;28;20465;-70
2023/10/26 08:03:17;;;;;;;35.00;30.00;;;10.60;99.90;;;;;;5057700;28;20496;-70
2023/10/26 08:05:55;;;;;;;35.77;31.83;;;10.60;99.90;;;;;;5056143;28;20469;-70
2023/10/26 08:08:23;;;;;;;37.30;30.30;;;10.60;99.90;;;;;;5055718;28;20458;-70
2023/10/26 08:10:51;;;;;;;33.83;28.90;;;10.70;99.90;;;;;;5039539;28;20442;-70
2023/10/26 08:13:21;;;;;;;33.60;29.83;;;10.70;99.90;;;;;;5056567;28;20442;-70
2023/10/26 08:15:49;;;;;;;37.07;30.97;;;10.70;99.90;;;;;;5057225;28;20461;-70
2023/10/26 08:18:37;;;;;;;32.33;28.93;;;10.70;99.90;;;;;;5057372;28;20465;-70
2023/10/26 08:21:05;;;;;;;37.20;29.97;;;10.70;99.90;;;;;;5057201;28;20521;-70
2023/10/26 08:23:33;;;;;;;37.20;31.20;;;10.70;99.90;;;;;;5057745;28;20825;-70
2023/10/26 08:26:07;;;;;;;34.77;29.70;;;10.80;99.90;;;;;;5057114;28;20466;-70
2023/10/26 08:28:37;;;;;;;36.00;31.00;;;10.80;99.90;;;;;;5039725;28;20470;-70
2023/10/26 08:31:06;;;;;;;33.27;28.93;;;10.80;99.90;;;;;;5057426;28;20474;-70
2023/10/26 08:33:34;;;;;;;33.50;29.90;;;10.80;99.90;;;;;;5055974;28;20529;-70
2023/10/26 08:36:04;;;;;;;35.70;29.27;;;10.80;99.90;;;;;;5039385;28;20983;-70
2023/10/26 08:38:33;;;;;;;40.17;31.47;;;10.90;99.90;;;;;;5056991;28;20453;-70
2023/10/26 08:41:01;;;;;;;33.97;29.20;;;10.90;99.90;;;;;;5038394;28;20458;-70
2023/10/26 08:43:34;;;;;;;38.03;31.27;;;10.90;99.90;;;;;;5056817;28;20434;-70
2023/10/26 08:46:06;;;;;;;38.60;31.87;;;10.90;99.90;;;;;;5057072;28;20466;-70
2023/10/26 08:48:39;;;;;;;33.23;29.50;;;10.90;99.90;;;;;;5057065;28;20466;-70
2023/10/26 08:51:08;;;;;;;37.00;30.27;;;10.90;99.90;;;;;;5057265;28;20429;-70
2023/10/26 08:53:37;;;;;;;34.90;31.00;;;10.90;99.90;;;;;;5056842;28;20456;-70
2023/10/26 08:56:08;;;;;;;35.97;31.00;;;10.90;99.90;;;;;;5056796;28;20525;-70
2023/10/26 08:58:36;;;;;;;34.90;31.07;;;10.90;99.90;;;;;;5056856;28;20561;-70
2023/10/26 09:01:06;;;;;;;35.20;31.30;;;10.90;99.90;;;;;;5057214;28;20438;-70
2023/10/26 09:03:35;;;;;;;36.40;30.27;;;10.90;99.90;;;;;;5056694;28;20442;-70
2023/10/26 09:06:04;;;;;;;35.80;29.90;;;11.00;99.90;;;;;;5056808;28;20840;-70
2023/10/26 09:08:33;;;;;;;40.27;31.80;;;11.00;99.90;;;;;;5056492;28;20460;-70
2023/10/26 09:11:04;;;;;;;35.43;28.93;;;11.00;99.90;;;;;;5056578;28;20988;-70
2023/10/26 09:13:33;;;;;;;38.60;31.20;;;11.00;99.90;;;;;;5056609;28;20429;-70
2023/10/26 09:16:01;;;;;;;38.90;31.37;;;11.00;99.90;;;;;;5056264;28;20434;-70
2023/10/26 09:18:31;;;;;;;39.20;31.00;;;11.10;99.90;;;;;;5056234;28;20508;-70
2023/10/26 09:21:04;;;;;;;38.70;31.70;;;11.10;99.90;;;;;;5038423;28;20442;-70
2023/10/26 09:23:34;;;;;;;38.10;31.07;;;11.00;99.90;;;;;;5055867;28;20454;-70
2023/10/26 09:26:03;;;;;;;36.40;31.17;;;11.00;99.90;;;;;;5055999;28;20543;-70
2023/10/26 09:28:52;;;;;;;33.97;30.23;;;11.00;99.90;;;;;;5056278;28;20481;-70
2023/10/26 09:31:20;;;;;;;39.03;32.70;;;11.10;99.90;;;;;;5056562;28;20431;-70
2023/10/26 09:33:50;;;;;;;37.07;31.53;;;11.00;99.90;;;;;;5055886;28;20865;-70
2023/10/26 09:36:20;;;;;;;36.80;31.30;;;11.10;99.90;;;;;;5055967;28;20454;-70
2023/10/26 09:38:48;;;;;;;32.90;28.50;;;11.10;99.90;;;;;;5057685;28;21036;-70
2023/10/26 09:41:18;;;;;;;36.40;29.07;;;11.10;99.90;;;;;;5056992;28;20492;-70
2023/10/26 09:43:48;;;;;;;33.20;28.93;;;11.10;99.90;;;;;;5057289;28;20449;-70
2023/10/26 09:46:18;;;;;;;32.97;29.17;;;11.10;99.90;;;;;;5057089;28;20470;-70
2023/10/26 09:48:46;;;;;;;35.83;29.00;;;11.10;99.90;;;;;;5054070;28;20458;-70
2023/10/26 09:51:19;;;;;;;35.20;30.00;;;11.10;99.90;;;;;;5053178;28;20470;-71
2023/10/26 09:53:49;;;;;;;38.47;30.33;;;11.10;99.90;;;;;;5055376;28;20421;-70
2023/10/26 09:56:21;;;;;;;33.20;29.60;;;11.20;99.90;;;;;;5054729;28;20521;-70
2023/10/26 09:58:51;;;;;;;34.67;28.00;;;11.10;99.90;;;;;;5054687;28;20461;-70
2023/10/26 10:01:36;;;;;;;30.17;26.97;;;11.10;99.90;;;;;;5053276;28;20442;-70
2023/10/26 10:04:06;;;;;;;35.77;29.60;;;11.20;99.90;;;;;;5054603;28;20421;-71
2023/10/26 10:06:52;;;;;;;32.80;28.73;;;11.20;99.90;;;;;;5054709;28;20512;-70
2023/10/26 10:09:23;;;;;;;31.00;27.40;;;11.20;99.90;;;;;;5054779;28;20541;-70
2023/10/26 10:12:28;;;;;;;30.13;26.87;;;11.20;99.90;;;;;;5055024;28;20490;-70
2023/10/26 10:15:00;;;;;;;31.27;27.87;;;11.20;99.90;;;;;;5052666;28;20811;-70
2023/10/26 10:18:15;;;;;;;30.83;27.70;;;11.20;99.90;;;;;;5054763;28;20504;-70
2023/10/26 10:20:43;;;;;;;29.67;26.33;;;11.20;99.90;;;;;;5054404;28;20448;-70
2023/10/26 10:23:30;;;;;;;31.23;26.33;;;11.20;99.90;;;;;;5053250;28;20947;-70
2023/10/26 10:25:59;;;;;;;28.80;25.70;;;11.20;99.90;;;;;;5054937;28;20457;-70
2023/10/26 10:28:54;;;;;;;30.50;26.50;;;11.20;99.90;;;;;;5037081;28;20537;-70
2023/10/26 10:31:42;;;;;;;29.40;26.23;;;11.20;99.90;;;;;;5055470;28;20768;-70
2023/10/26 10:34:11;;;;;;;29.97;26.90;;;11.20;99.90;;;;;;5055045;28;20446;-71
2023/10/26 10:37:11;;;;;;;29.83;26.73;;;11.30;99.90;;;;;;5054410;28;20461;-70
2023/10/26 10:40:12;;;;;;;31.40;27.43;;;11.30;99.90;;;;;;5055381;28;20456;-70
2023/10/26 10:42:41;;;;;;;22.27;19.97;;;11.30;99.90;;;;;;5055069;28;20426;-70
2023/10/26 10:45:13;;;;;;;32.23;28.27;;;11.30;99.90;;;;;;5053497;28;20438;-70
2023/10/26 10:47:42;;;;;;;30.23;27.03;;;11.30;99.90;;;;;;5054419;28;20457;-70
2023/10/26 10:50:17;;;;;;;28.30;25.30;;;11.30;99.90;;;;;;5054871;28;20947;-70
2023/10/26 10:52:45;;;;;;;28.17;25.33;;;11.30;99.90;;;;;;5054918;28;20506;-70
2023/10/26 10:55:20;;;;;;;27.07;24.27;;;11.30;99.90;;;;;;5054622;28;20803;-70
2023/10/26 10:57:55;;;;;;;28.53;25.53;;;11.40;99.90;;;;;;5054889;28;20456;-70
2023/10/26 11:00:25;;;;;;;28.47;25.50;;;11.40;99.90;;;;;;5037015;28;20438;-70
2023/10/26 11:02:57;;;;;;;28.03;25.10;;;11.40;99.90;;;;;;5055725;28;20923;-70
2023/10/26 11:05:37;;;;;;;27.67;24.87;;;11.40;99.90;;;;;;5058949;28;20458;-70
2023/10/26 11:08:06;;;;;;;27.70;24.90;;;11.40;99.90;;;;;;5058395;28;20966;-70
2023/10/26 11:10:36;;;;;;;28.63;25.63;;;11.40;99.90;;;;;;5061397;28;20632;-70
2023/10/26 11:13:05;;;;;;;25.43;22.83;;;11.40;99.90;;;;;;5064331;28;21004;-70
2023/10/26 11:15:33;;;;;;;27.23;24.43;;;11.40;99.90;;;;;;5059728;28;20856;-70
2023/10/26 11:18:03;;;;;;;26.90;24.20;;;11.50;99.90;;;;;;5060024;28;20461;-70
2023/10/26 11:20:36;;;;;;;27.70;24.70;;;11.50;99.90;;;;;;5042428;28;20442;-70
2023/10/26 11:23:08;;;;;;;27.00;24.40;;;11.50;99.90;;;;;;5058717;28;20492;-70
2023/10/26 11:25:38;;;;;;;29.57;26.43;;;11.50;99.90;;;;;;5057734;28;20540;-70
2023/10/26 11:28:07;;;;;;;28.63;25.27;;;11.50;99.90;;;;;;5056557;28;20930;-70
2023/10/26 11:30:46;;;;;;;30.13;26.97;;;11.50;99.90;;;;;;5057923;28;20450;-70
2023/10/26 11:33:29;;;;;;;27.43;24.57;;;11.50;99.90;;;;;;5058546;28;20934;-70
2023/10/26 11:35:58;;;;;;;27.57;24.87;;;11.60;99.90;;;;;;5057649;28;20810;-70
2023/10/26 11:38:27;;;;;;;29.17;26.10;;;11.60;99.90;;;;;;5057430;28;20983;-70
2023/10/26 11:40:56;;;;;;;27.90;25.17;;;11.60;99.90;;;;;;5057661;28;20434;-70
2023/10/26 11:43:34;;;;;;;24.30;21.97;;;11.60;99.90;;;;;;5057396;28;20932;-70
2023/10/26 11:46:03;;;;;;;26.97;24.10;;;11.70;99.90;;;;;;5057520;28;20425;-70
2023/10/26 11:48:33;;;;;;;28.00;25.10;;;11.70;99.90;;;;;;5057448;28;20528;-70
2023/10/26 11:51:06;;;;;;;26.20;23.57;;;11.70;99.90;;;;;;5056439;28;20531;-70
2023/10/26 11:53:35;;;;;;;26.50;23.80;;;11.80;99.90;;;;;;5057643;28;20446;-70
2023/10/26 11:56:05;;;;;;;26.80;24.13;;;11.80;99.90;;;;;;5057621;28;20438;-70
2023/10/26 11:58:35;;;;;;;25.93;23.23;;;11.80;99.90;;;;;;5057678;28;20513;-70
2023/10/26 12:01:03;;;;;;;26.83;24.00;;;11.80;99.90;;;;;;5057722;28;20422;-70
2023/10/26 12:03:31;;;;;;;25.20;22.70;;;11.80;99.90;;;;;;5056360;28;20476;-70
2023/10/26 12:06:00;;;;;;;26.87;24.07;;;11.80;99.90;;;;;;5057265;28;20532;-70
2023/10/26 12:08:28;;;;;;;26.07;23.27;;;11.80;99.90;;;;;;5057540;28;20507;-70
2023/10/26 12:10:56;;;;;;;25.80;23.10;;;11.80;99.90;;;;;;5057639;28;20470;-70
2023/10/26 12:13:25;;;;;;;25.13;22.73;;;11.80;99.90;;;;;;5057735;28;20437;-70
2023/10/26 12:15:53;;;;;;;25.80;23.10;;;11.80;99.90;;;;;;5057971;28;20473;-70
2023/10/26 12:18:21;;;;;;;24.50;21.90;;;11.90;99.90;;;;;;5057550;28;20454;-70
2023/10/26 12:20:49;;;;;;;25.83;23.07;;;11.90;99.90;;;;;;5057389;28;20441;-70
2023/10/26 12:23:17;;;;;;;24.27;21.70;;;11.90;99.90;;;;;;5039649;28;20464;-70
2023/10/26 12:25:46;;;;;;;23.83;21.13;;;11.90;99.90;;;;;;5057567;28;20526;-70
2023/10/26 12:28:16;;;;;;;23.83;21.33;;;11.90;99.90;;;;;;5057768;28;20983;-70
2023/10/26 12:30:54;;;;;;;22.53;20.13;;;11.90;99.90;;;;;;5057893;28;20418;-70
2023/10/26 12:33:22;;;;;;;25.33;22.60;;;12.00;99.90;;;;;;5057850;28;20853;-70
2023/10/26 12:35:51;;;;;;;23.33;20.93;;;12.00;99.90;;;;;;5057844;28;20496;-70
2023/10/26 12:38:22;;;;;;;23.40;20.90;;;12.00;99.90;;;;;;5057193;28;20458;-70
2023/10/26 12:40:50;;;;;;;23.70;21.17;;;12.00;99.90;;;;;;5057358;28;20484;-70
2023/10/26 12:43:18;;;;;;;22.50;20.07;;;12.00;99.90;;;;;;5057078;28;20434;-70